createdAt,value
2023-02-24T00:10:18.685Z,-5
2023-02-24T00:25:20.891Z,-5.36
2023-02-24T00:40:23.331Z,-5.48
2023-02-24T00:55:25.698Z,-4.74
2023-02-24T01:10:29.542Z,-5.56
2023-02-24T01:25:31.894Z,-5.6
2023-02-24T01:40:34.103Z,-6.32
2023-02-24T01:55:36.455Z,-6.85
2023-02-24T02:10:38.589Z,-6.46
2023-02-24T02:25:40.849Z,-6.33
2023-02-24T02:40:43.074Z,-6.57
2023-02-24T02:55:45.295Z,-6.84
2023-02-24T03:10:48.713Z,-7.35
2023-02-24T03:25:51.054Z,-7.3
2023-02-24T03:40:53.436Z,-6.43
2023-02-24T03:55:55.742Z,-6.59
2023-02-24T04:10:59.817Z,-6.61
2023-02-24T04:26:02.334Z,-7.39
2023-02-24T04:41:04.723Z,-7.16
2023-02-24T04:56:07.015Z,-7.16
2023-02-24T05:11:09.796Z,-7.86
2023-02-24T05:26:12.390Z,-7.84
2023-02-24T05:41:14.640Z,-7.23
2023-02-24T05:56:16.911Z,-6.86
2023-02-24T06:11:19.523Z,-7.56
2023-02-24T06:26:21.854Z,-7.26
2023-02-24T06:41:24.066Z,-7.49
2023-02-24T06:56:26.353Z,-8.24
2023-02-24T07:11:28.629Z,-7.48
2023-02-24T07:26:31.529Z,-7.73
2023-02-24T07:41:34.467Z,-7.78
2023-02-24T07:56:36.688Z,-7.5
2023-02-24T08:11:38.985Z,-7.54
2023-02-24T08:26:41.248Z,-8.01
2023-02-24T08:41:43.576Z,-7.38
2023-02-24T08:56:45.806Z,-6.5
2023-02-24T09:11:48.191Z,-6.46
2023-02-24T09:26:50.404Z,-6.76
2023-02-24T09:41:52.665Z,-7.21
2023-02-24T09:56:54.927Z,-6.75
2023-02-24T10:11:57.407Z,-7.35
2023-02-24T10:27:07.451Z,-6.98
2023-02-24T10:42:10.456Z,-6.89
2023-02-24T10:57:12.735Z,-7.53
2023-02-24T11:12:15.032Z,-7.41
2023-02-24T11:27:17.282Z,-7.17
2023-02-24T11:42:19.559Z,-7.66
2023-02-24T11:57:21.828Z,-8.08
2023-02-24T12:12:24.460Z,-9.22
2023-02-24T12:27:26.726Z,-8.82
2023-02-24T12:42:29.238Z,-9.34
2023-02-24T12:57:31.449Z,-9.61
2023-02-24T13:12:33.684Z,-9.85
2023-02-24T13:27:35.941Z,-9.5
2023-02-24T13:42:38.137Z,-9.22
2023-02-24T13:57:40.374Z,-9.39
2023-02-24T14:12:42.881Z,-9.45
2023-02-24T14:27:45.092Z,-9.91
2023-02-24T14:42:47.427Z,-10.16
2023-02-24T14:57:49.641Z,-10.21
2023-02-24T15:12:51.917Z,-10.03
2023-02-24T15:27:54.155Z,-10
2023-02-24T15:42:56.474Z,-9.12
2023-02-24T15:57:58.735Z,-3.99
2023-02-24T16:13:00.978Z,-1.35
2023-02-24T16:28:03.391Z,-5.25
2023-02-24T16:43:05.710Z,-5.99
2023-02-24T16:58:08.088Z,8.25
2023-02-24T17:13:10.286Z,6.46
2023-02-24T17:28:12.538Z,-2.91
2023-02-24T17:43:14.829Z,-0.82
2023-02-24T17:58:17.059Z,-2.07
2023-02-24T18:13:19.353Z,-3.78
2023-02-24T18:28:21.616Z,-3.18
2023-02-24T18:43:23.901Z,-1.79
2023-02-24T18:58:26.102Z,-2.18
2023-02-24T19:13:28.387Z,-2.08
2023-02-24T19:28:30.679Z,-2.2
2023-02-24T19:43:32.865Z,-2.25
2023-02-24T19:58:35.104Z,-2.84
2023-02-24T20:13:37.383Z,-0.52
2023-02-24T20:28:39.725Z,0.14
2023-02-24T20:43:41.988Z,-0.71
2023-02-24T20:58:44.348Z,-0.21
2023-02-24T21:13:46.576Z,-0.35
2023-02-24T21:28:48.887Z,0.1
2023-02-24T21:43:51.314Z,0.25
2023-02-24T21:58:54.409Z,0.22
2023-02-24T22:13:56.753Z,-0.38
2023-02-24T22:28:59.140Z,-0.28
2023-02-24T22:44:01.389Z,0.06
2023-02-24T22:59:03.697Z,-0.06
2023-02-24T23:14:06.075Z,0.24
2023-02-24T23:29:08.403Z,0.31
2023-02-24T23:44:10.618Z,0.28
2023-02-24T23:59:12.831Z,-0.37
